Flight Track Log - Related Links

Times and Time Zones

All times are in EDT time to prevent confusion due to time zone crossing. See the SKW5598 flight status page for this flight to view local times or setup timezone preferences in your user account.

Time Position Orientation Groundspeed Altitude Reporting Facility
EDT Latitude Longitude Course Direction KTS MPH feet Rate Location/Type
Sun 02:04:31 PM 37.6333 -122.4167 293° West 166 191 1,200  Level Northern Cal TRACON
Sun 02:05:25 PM 37.6500 -122.4667 313° West 215 247 3,100 2,243 Climbing Northern Cal TRACON
Sun 02:06:26 PM 37.7000 -122.5333 243° Southwest 233 268 5,500 2,281 Climbing Northern Cal TRACON
Sun 02:07:26 PM 37.6667 -122.6167 164° South 283 326 7,700 2,073 Climbing Northern Cal TRACON
Sun 02:08:16 PM 37.5892 -122.5881 130° Southeast 302 348 9,300 2,202 Climbing Oakland Center
Sun 02:09:15 PM 37.5400 -122.5136 131° Southeast 315 362 11,700 2,067 Climbing Oakland Center
Sun 02:10:15 PM 37.4806 -122.4261 129° Southeast 325 374 13,400 1,900 Climbing Oakland Center
Sun 02:11:15 PM 37.4192 -122.3308 129° Southeast 338 389 15,500 1,983 Climbing Oakland Center
Sun 02:12:16 PM 37.3578 -122.2356 129° Southeast 345 397 17,400 2,000 Climbing Oakland Center
Sun 02:13:15 PM 37.2919 -122.1325 131° Southeast 358 412 19,500 1,800 Climbing Oakland Center
Sun 02:14:16 PM 37.2283 -122.0403 129° Southeast 374 430 21,000 1,600 Climbing Oakland Center
Sun 02:15:15 PM 37.1603 -121.9350 130° Southeast 384 442 22,700 1,714 Climbing Oakland Center
Sun 02:16:15 PM 37.0903 -121.8300 130° Southeast 389 448 24,400 1,550 Climbing Oakland Center
Sun 02:17:15 PM 37.0178 -121.7200 130° Southeast 389 448 25,800 1,350 Climbing Oakland Center
Sun 02:18:15 PM 36.9456 -121.6128 130° Southeast 394 453 27,100 1,350 Climbing Oakland Center
Sun 02:19:15 PM 36.8711 -121.5031 129° Southeast 406 467 28,500 1,300 Climbing Oakland Center
Sun 02:20:15 PM 36.7922 -121.3806 130° Southeast 411 473 29,700 1,150 Climbing Oakland Center
Sun 02:21:15 PM 36.7175 -121.2689 130° Southeast 411 473 30,800 1,000 Climbing Oakland Center
Sun 02:22:15 PM 36.6406 -121.1547 130° Southeast 416 479 31,700 800 Climbing Oakland Center
Sun 02:23:15 PM 36.5633 -121.0408 130° Southeast 421 484 32,400 545 Climbing Oakland Center
Sun 02:24:16 PM 36.4819 -120.9219 130° Southeast 434 499 32,800 750 Climbing Oakland Center
Sun 02:25:15 PM 36.4006 -120.8033 130° Southeast 445 512 33,900 1,250 Climbing Oakland Center
Sun 02:26:16 PM 36.3211 -120.6847 131° Southeast 450 518 35,300 1,289 Climbing Oakland Center
Sun 02:27:16 PM 36.2456 -120.5769 130° Southeast 439 505 36,500 908 Climbing Oakland Center
Sun 02:28:15 PM 36.1703 -120.4642 131° Southeast 428 493 37,100 545 Climbing Oakland Center
Sun 02:29:06 PM 36.1025 -120.3675 131° Southeast 433 498 37,500 432 Climbing Los Angeles Center
Sun 02:30:06 PM 36.0269 -120.2608 130° Southeast 438 504 37,900 400 Climbing Los Angeles Center
Sun 02:31:06 PM 35.9514 -120.1492 131° Southeast 438 504 38,300 400 Climbing Los Angeles Center
Sun 02:32:06 PM 35.8736 -120.0403 131° Southeast 426 490 38,700 350 Climbing Los Angeles Center
Sun 02:33:06 PM 35.7956 -119.9289 129° Southeast 421 484 39,000 150 Climbing Los Angeles Center
Sun 02:34:06 PM 35.7219 -119.8178 132° Southeast 421 484 39,000  Level Los Angeles Center
Sun 02:35:06 PM 35.6417 -119.7069 130° Southeast 421 484 39,000  Level Los Angeles Center
Sun 02:36:06 PM 35.5617 -119.5911 132° Southeast 426 490 39,000  Level Los Angeles Center
Sun 02:37:06 PM 35.4792 -119.4778 130° Southeast 426 490 39,000  Level Los Angeles Center
Sun 02:38:06 PM 35.3969 -119.3597 119° Southeast 432 497 39,000  Level Los Angeles Center
Sun 02:39:06 PM 35.3497 -119.2536 114° Southeast 456 525 39,000  Level Los Angeles Center
Sun 02:40:06 PM 35.2872 -119.0806 113° Southeast 471 542 39,000  Level Los Angeles Center
Sun 02:41:06 PM 35.2344 -118.9311 114° Southeast 464 534 39,000  Level Los Angeles Center
Sun 02:42:06 PM 35.1814 -118.7872 115° Southeast 515 593 39,000  Level Los Angeles Center
Sun 02:43:06 PM 35.1281 -118.6458 114° Southeast 482 555 39,000  Level Los Angeles Center
Sun 02:44:06 PM 35.0744 -118.4994 115° Southeast 468 539 39,000  Level Los Angeles Center
Sun 02:45:06 PM 35.0269 -118.3764 115° Southeast 456 525 39,000  Level Los Angeles Center
Sun 02:46:06 PM 34.9711 -118.2303 115° Southeast 461 531 39,000  Level Los Angeles Center
Sun 02:47:06 PM 34.9131 -118.0819 115° Southeast 472 543 39,000  Level Los Angeles Center
Sun 02:48:06 PM 34.8567 -117.9361 115° Southeast 472 543 39,000  Level Los Angeles Center
Sun 02:49:06 PM 34.7983 -117.7858 115° Southeast 477 549 39,000  Level Los Angeles Center
Sun 02:50:06 PM 34.7400 -117.6328 115° Southeast 477 549 39,000  Level Los Angeles Center
Sun 02:51:06 PM 34.6833 -117.4828 115° Southeast 483 556 39,000  Level Los Angeles Center
Sun 02:52:06 PM 34.6183 -117.3153 116° Southeast 493 567 39,000  Level Los Angeles Center
Sun 02:53:06 PM 34.5569 -117.1656 115° Southeast 493 567 39,000  Level Los Angeles Center
Sun 02:54:06 PM 34.4997 -117.0136 115° Southeast 488 562 39,000  Level Los Angeles Center
Sun 02:55:06 PM 34.4403 -116.8617 116° Southeast 488 562 39,000  Level Los Angeles Center
Sun 02:56:06 PM 34.3806 -116.7128 116° Southeast 488 562 39,000  Level Los Angeles Center
Sun 02:57:06 PM 34.3206 -116.5639 116° Southeast 488 562 39,000  Level Los Angeles Center
Sun 02:58:06 PM 34.2606 -116.4153 115° Southeast 488 562 39,000  Level Los Angeles Center
Sun 02:59:06 PM 34.2044 -116.2694 115° Southeast 488 562 39,000  Level Los Angeles Center
Sun 03:00:06 PM 34.1461 -116.1211 113° Southeast 488 562 39,000  Level Los Angeles Center
Sun 03:01:06 PM 34.0939 -115.9708 116° Southeast 488 562 39,000  Level Los Angeles Center
Sun 03:02:06 PM 34.0331 -115.8228 116° Southeast 483 556 39,000  Level Los Angeles Center
Sun 03:03:06 PM 33.9742 -115.6753 116° Southeast 483 556 39,000  Level Los Angeles Center
Sun 03:04:06 PM 33.9150 -115.5306 117° Southeast 483 556 39,000  Level Los Angeles Center
Sun 03:05:06 PM 33.8539 -115.3833 116° Southeast 488 562 39,000  Level Los Angeles Center
Sun 03:06:06 PM 33.7922 -115.2339 116° Southeast 488 562 39,000  Level Los Angeles Center
Sun 03:07:06 PM 33.7306 -115.0847 117° Southeast 488 562 39,000  Level Los Angeles Center
Sun 03:08:06 PM 33.6686 -114.9381 116° Southeast 488 562 39,000  Level Los Angeles Center
Sun 03:09:06 PM 33.6153 -114.8042 107° East 488 562 39,000  Level Los Angeles Center
Sun 03:10:06 PM 33.5736 -114.6453 101° East 488 562 39,000  Level Los Angeles Center
Sun 03:11:06 PM 33.5467 -114.4789 100° East 494 568 39,000  Level Los Angeles Center
Sun 03:12:13 PM 33.5175 -114.2906 102° East 509 586 39,000  Level Albuquerque Center
Sun 03:13:15 PM 33.4881 -114.1233 102° East 512 589 39,000  Level Albuquerque Center
Sun 03:14:17 PM 33.4583 -113.9564 102° East 513 590 39,000  Level Albuquerque Center
Sun 03:15:20 PM 33.4211 -113.7550 102° East 516 594 39,000  Level Albuquerque Center
Sun 03:16:22 PM 33.3908 -113.5881 102° East 514 592 39,000  Level Albuquerque Center
Sun 03:17:24 PM 33.3606 -113.4203 103° East 515 593 39,000  Level Albuquerque Center
Sun 03:18:27 PM 33.3292 -113.2522 103° East 517 595 39,000  Level Albuquerque Center
Sun 03:19:29 PM 33.2975 -113.0833 103° East 519 597 39,000  Level Albuquerque Center
Sun 03:20:32 PM 33.2653 -112.9167 103° East 517 595 39,000  Level Albuquerque Center
Sun 03:21:34 PM 33.2275 -112.7169 103° East 514 592 39,000  Level Albuquerque Center
Sun 03:22:37 PM 33.1953 -112.5467 103° East 515 593 39,000  Level Albuquerque Center
Sun 03:23:39 PM 33.1619 -112.3800 103° East 511 588 39,000  Level Albuquerque Center
Sun 03:24:41 PM 33.1292 -112.2119 103° East 514 592 39,000  Level Albuquerque Center
Sun 03:25:44 PM 33.0967 -112.0436 103° East 516 594 39,000  Level Albuquerque Center
Sun 03:26:46 PM 33.0636 -111.8744 103° East 517 595 39,000  Level Albuquerque Center
Sun 03:27:49 PM 33.0308 -111.7067 103° East 516 594 39,000  Level Albuquerque Center
Sun 03:28:51 PM 32.9908 -111.5058 104° East 515 593 39,000  Level Albuquerque Center
Sun 03:29:53 PM 32.9564 -111.3386 103° East 514 592 39,000  Level Albuquerque Center
Sun 03:30:56 PM 32.9233 -111.1714 104° East 513 590 39,000  Level Albuquerque Center
Sun 03:31:58 PM 32.8892 -111.0039 104° East 514 592 39,000  Level Albuquerque Center
Sun 03:33:00 PM 32.8542 -110.8381 104° East 513 590 39,000  Level Albuquerque Center
Sun 03:34:03 PM 32.8189 -110.6642 104° East 512 589 39,000  Level Albuquerque Center
Sun 03:35:05 PM 32.7850 -110.5022 105° East 511 588 39,000  Level Albuquerque Center
Sun 03:36:08 PM 32.7497 -110.3411 104° East 511 588 39,000  Level Albuquerque Center
Sun 03:37:10 PM 32.7089 -110.1475 104° East 510 587 39,000  Level Albuquerque Center
Sun 03:38:12 PM 32.6753 -109.9875 105° East 508 585 39,000  Level Albuquerque Center
Sun 03:39:15 PM 32.6406 -109.8294 105° East 504 580 39,000  Level Albuquerque Center
Sun 03:40:17 PM 32.6056 -109.6711 105° East 503 579 39,000  Level Albuquerque Center
Sun 03:41:20 PM 32.5619 -109.4803 104° East 506 582 39,000  Level Albuquerque Center
Sun 03:42:22 PM 32.5278 -109.3225 105° East 504 580 39,000  Level Albuquerque Center
Sun 03:43:25 PM 32.4936 -109.1672 105° East 500 575 39,000  Level Albuquerque Center
Sun 03:44:27 PM 32.4522 -108.9792 105° East 500 575 39,000  Level Albuquerque Center
Sun 03:45:29 PM 32.4164 -108.8231 105° East 500 575 39,000  Level Albuquerque Center
Sun 03:46:32 PM 32.3817 -108.6672 105° East 498 573 39,000  Level Albuquerque Center
Sun 03:47:34 PM 32.3467 -108.5117 105° East 497 572 39,000  Level Albuquerque Center
Sun 03:48:37 PM 32.3042 -108.3281 105° East 497 572 39,000  Level Albuquerque Center
Sun 03:49:39 PM 32.2675 -108.1717 105° East 496 571 39,000  Level Albuquerque Center
Sun 03:50:42 PM 32.2314 -108.0136 105° East 498 573 39,000  Level Albuquerque Center
Sun 03:51:44 PM 32.1961 -107.8594 106° East 495 570 39,000  Level Albuquerque Center
Sun 03:52:46 PM 32.1519 -107.6731 105° East 495 570 39,000  Level Albuquerque Center
Sun 03:53:49 PM 32.1158 -107.5178 105° East 495 570 39,000  Level Albuquerque Center
Sun 03:54:51 PM 32.0806 -107.3644 106° East 493 567 39,000  Level Albuquerque Center
Sun 03:55:54 PM 32.0425 -107.2131 105° East 491 565 39,000 -48 Level Albuquerque Center
Sun 03:56:56 PM 32.0003 -107.0292 106° East 489 563 38,900  Descending Albuquerque Center
Sun 03:57:59 PM 31.9639 -106.8781 106° East 487 560 39,000 48 Climbing Albuquerque Center
Sun 03:59:01 PM 31.9267 -106.7267 106° East 485 558 39,000 -48 Level Albuquerque Center
Sun 04:00:04 PM 31.8892 -106.5753 106° East 486 559 38,900 -48 Descending Albuquerque Center
Sun 04:01:06 PM 31.8500 -106.4169 106° East 490 564 38,900 48 Level Albuquerque Center
Sun 04:02:08 PM 31.8044 -106.2331 107° East 492 566 39,000 48 Climbing Albuquerque Center
Sun 04:03:11 PM 31.7664 -106.0833 107° East 484 557 39,000  Level Albuquerque Center
Sun 04:04:13 PM 31.7283 -105.9333 106° East 481 554 39,000  Level Albuquerque Center
Sun 04:05:16 PM 31.6908 -105.7822 107° East 481 554 39,000  Level Albuquerque Center
Sun 04:06:18 PM 31.6522 -105.6322 106° East 481 554 39,000  Level Albuquerque Center
Sun 04:07:21 PM 31.6067 -105.4508 106° East 482 555 39,000  Level Albuquerque Center
Sun 04:08:23 PM 31.5692 -105.2997 107° East 481 554 39,000  Level Albuquerque Center
Sun 04:09:26 PM 31.5308 -105.1497 106° East 479 551 39,000  Level Albuquerque Center
Sun 04:10:28 PM 31.4928 -104.9986 107° East 480 552 39,000  Level Albuquerque Center
Sun 04:11:31 PM 31.4542 -104.8481 106° East 480 552 39,000  Level Albuquerque Center
Sun 04:12:33 PM 31.4161 -104.6978 107° East 479 551 39,000  Level Albuquerque Center
Sun 04:13:36 PM 31.3694 -104.5181 107° East 479 551 39,000  Level Albuquerque Center
Sun 04:14:38 PM 31.3308 -104.3694 108° East 478 550 39,000  Level Albuquerque Center
Sun 04:15:41 PM 31.2906 -104.2206 107° East 478 550 39,000 -48 Level Albuquerque Center
Sun 04:16:43 PM 31.2517 -104.0725 107° East 477 549 38,900  Descending Albuquerque Center
Sun 04:17:46 PM 31.2119 -103.9244 108° East 477 549 39,000 48 Climbing Albuquerque Center
Sun 04:18:48 PM 31.1658 -103.7578 108° East 479 551 39,000  Level Albuquerque Center
Sun 04:19:50 PM 31.1247 -103.6094 108° East 481 554 39,000  Level Albuquerque Center
Sun 04:20:53 PM 31.0836 -103.4625 108° East 480 552 39,000  Level Albuquerque Center
Sun 04:21:55 PM 31.0350 -103.2850 107° East 480 552 39,000  Level Albuquerque Center
Sun 04:22:58 PM 30.9956 -103.1381 108° East 479 551 39,000 -48 Level Albuquerque Center
Sun 04:24:00 PM 30.9556 -102.9939 107° East 474 545 38,900  Descending Albuquerque Center
Sun 04:25:03 PM 30.9167 -102.8461 106° East 477 549 39,000 48 Climbing Albuquerque Center
Sun 04:26:05 PM 30.8714 -102.6683 108° East 480 552 39,000  Level Albuquerque Center
Sun 04:27:02 PM 30.8372 -102.5464 107° East 482 555 39,000  Level Houston Center
Sun 04:28:02 PM 30.7992 -102.3978 107° East 476 548 39,000  Level Houston Center
Sun 04:29:02 PM 30.7608 -102.2514 107° East 476 548 39,000  Level Houston Center
Sun 04:30:02 PM 30.7222 -102.1050 108° East 476 548 39,000  Level Houston Center
Sun 04:31:02 PM 30.6767 -101.9389 107° East 476 548 39,000  Level Houston Center
Sun 04:32:02 PM 30.6381 -101.7881 107° East 476 548 39,000  Level Houston Center
Sun 04:33:02 PM 30.6008 -101.6447 106° East 476 548 39,000  Level Houston Center
Sun 04:34:02 PM 30.5669 -101.5114 108° East 476 548 39,000  Level Houston Center
Sun 04:35:02 PM 30.5256 -101.3656 107° East 476 548 39,000  Level Houston Center
Sun 04:36:02 PM 30.4864 -101.2125 108° East 476 548 39,000  Level Houston Center
Sun 04:37:02 PM 30.4447 -101.0644 108° East 476 548 39,000  Level Houston Center
Sun 04:38:02 PM 30.4031 -100.9164 108° East 476 548 39,000 -600 Level Houston Center
Sun 04:39:02 PM 30.3611 -100.7658 109° East 476 548 37,800 -2,050 Descending Houston Center
Sun 04:40:02 PM 30.3136 -100.6031 108° East 481 554 34,900 -2,650 Descending Houston Center
Sun 04:41:02 PM 30.2714 -100.4531 107° East 486 559 32,500 -2,350 Descending Houston Center
Sun 04:42:02 PM 30.2294 -100.2958 111° Southeast 497 572 30,200 -2,400 Descending Houston Center
Sun 04:43:02 PM 30.1822 -100.1503 104° East 497 572 27,700 -2,500 Descending Houston Center
Sun 04:44:02 PM 30.1483 -99.9939 109° East 490 564 25,200 -2,400 Descending Houston Center
Sun 04:45:02 PM 30.1139 -99.8761 109° East 480 552 22,900 -2,650 Descending Houston Center
Sun 04:46:02 PM 30.0719 -99.7383 107° East 459 528 19,900 -3,000 Descending Houston Center
Sun 04:47:02 PM 30.0361 -99.6064 109° East 445 512 16,900 -3,000 Descending Houston Center
Sun 04:48:02 PM 29.9997 -99.4814 109° East 422 486 13,900 -2,250 Descending Houston Center
Sun 04:49:02 PM 29.9647 -99.3636 111° Southeast 402 463 12,400 -1,269 Descending Houston Center
Sun 04:49:46 PM 29.9325 -99.2656 109° East 395 455 11,700 -1,043 Descending Houston Center
Sun 04:50:34 PM 29.9028 -99.1675 114° Southeast 386 444 10,800 -936 Descending Houston Center
Sun 04:51:35 PM 29.8606 -99.0592 113° Southeast 374 430 10,000 -393 Descending Houston Center
Sun 04:52:36 PM 29.8225 -98.9561 112° Southeast 328 377 10,000 -689 Level Houston Center
Sun 04:53:37 PM 29.7917 -98.8703 113° Southeast 289 333 8,600 -1,180 Descending Houston Center
Sun 04:54:38 PM 29.7622 -98.7917 123° Southeast 270 311 7,600 -1,140 Descending Houston Center
Sun 04:55:38 PM 29.7242 -98.7244 132° Southeast 249 287 6,300 -1,461 Descending Houston Center
Sun 04:56:33 PM 29.6831 -98.6717 133° Southeast 245 282 4,800 -1,345 Descending Houston Center
Sun 04:57:34 PM 29.6381 -98.6161 130° Southeast 235 270 3,700 -1,131 Descending Houston Center
Sun 04:58:35 PM 29.5989 -98.5633 132° Southeast 205 236 2,500 -898 Descending Houston Center
Sun 04:59:41 PM 29.5717 -98.5281 132° Southeast 135 155 1,800 -661 Descending Houston Center
Sun 05:00:42 PM 29.5481 -98.4978 139° Southeast 129 148 1,100 -426 Descending Houston Center
Sun 05:02:02 PM 29.5381 -98.4878 139° Southeast 110 127 800 -225 Descending Houston Center

Login

Don't have an account? Register now (free) for customized features, flight alerts, and more!